sensor_id;sensor_type;location;lat;lon;timestamp;pressure;altitude;pressure_sealevel;temperature;humidity
77011;BME280;65945;53.148;17.956;2023-03-14T00:00:11;98976.91;;;11.19;76.29
77011;BME280;65945;53.148;17.956;2023-03-14T00:03:00;98978.06;;;11.20;76.18
77011;BME280;65945;53.148;17.956;2023-03-14T00:05:27;98977.66;;;11.21;75.98
77011;BME280;65945;53.148;17.956;2023-03-14T00:07:54;98977.36;;;11.22;76.01
77011;BME280;65945;53.148;17.956;2023-03-14T00:10:20;98981.25;;;11.23;75.89
77011;BME280;65945;53.148;17.956;2023-03-14T00:12:47;98985.97;;;11.24;76.02
77011;BME280;65945;53.148;17.956;2023-03-14T00:15:13;98987.55;;;11.27;75.89
77011;BME280;65945;53.148;17.956;2023-03-14T00:17:42;98985.86;;;11.29;75.83
77011;BME280;65945;53.148;17.956;2023-03-14T00:20:10;98987.61;;;11.30;75.97
77011;BME280;65945;53.148;17.956;2023-03-14T00:22:38;98986.23;;;11.29;75.78
77011;BME280;65945;53.148;17.956;2023-03-14T00:25:07;98988.10;;;11.27;75.82
77011;BME280;65945;53.148;17.956;2023-03-14T00:27:34;98982.75;;;11.25;75.86
77011;BME280;65945;53.148;17.956;2023-03-14T00:30:00;98984.27;;;11.27;75.46
77011;BME280;65945;53.148;17.956;2023-03-14T00:32:27;98989.84;;;11.28;75.42
77011;BME280;65945;53.148;17.956;2023-03-14T00:34:54;98997.25;;;11.29;75.45
77011;BME280;65945;53.148;17.956;2023-03-14T00:37:20;98996.70;;;11.31;75.55
77011;BME280;65945;53.148;17.956;2023-03-14T00:39:47;98993.63;;;11.33;75.32
77011;BME280;65945;53.148;17.956;2023-03-14T00:42:14;98991.86;;;11.33;75.37
77011;BME280;65945;53.148;17.956;2023-03-14T00:44:40;98987.50;;;11.33;75.33
77011;BME280;65945;53.148;17.956;2023-03-14T00:47:07;98981.01;;;11.32;75.16
77011;BME280;65945;53.148;17.956;2023-03-14T00:49:34;98974.29;;;11.31;75.29
77011;BME280;65945;53.148;17.956;2023-03-14T00:52:00;98967.88;;;11.29;75.44
77011;BME280;65945;53.148;17.956;2023-03-14T00:54:27;98964.84;;;11.26;75.18
77011;BME280;65945;53.148;17.956;2023-03-14T00:56:54;98960.50;;;11.25;74.95
77011;BME280;65945;53.148;17.956;2023-03-14T00:59:20;98955.47;;;11.23;74.96
77011;BME280;65945;53.148;17.956;2023-03-14T01:01:47;98955.02;;;11.22;74.99
77011;BME280;65945;53.148;17.956;2023-03-14T01:04:14;98949.91;;;11.20;75.03
77011;BME280;65945;53.148;17.956;2023-03-14T01:06:40;98939.83;;;11.19;74.83
77011;BME280;65945;53.148;17.956;2023-03-14T01:09:07;98935.71;;;11.17;74.50
77011;BME280;65945;53.148;17.956;2023-03-14T01:11:34;98934.95;;;11.15;74.67
77011;BME280;65945;53.148;17.956;2023-03-14T01:14:03;98937.19;;;11.14;74.70
77011;BME280;65945;53.148;17.956;2023-03-14T01:16:34;98935.37;;;11.13;74.43
77011;BME280;65945;53.148;17.956;2023-03-14T01:19:01;98932.77;;;11.12;74.56
77011;BME280;65945;53.148;17.956;2023-03-14T01:21:31;98931.94;;;11.11;74.55
77011;BME280;65945;53.148;17.956;2023-03-14T01:24:00;98926.44;;;11.11;74.44
77011;BME280;65945;53.148;17.956;2023-03-14T01:26:30;98925.52;;;11.11;74.55
77011;BME280;65945;53.148;17.956;2023-03-14T01:28:57;98923.84;;;11.11;74.26
77011;BME280;65945;53.148;17.956;2023-03-14T01:31:25;98926.59;;;11.11;74.47
77011;BME280;65945;53.148;17.956;2023-03-14T01:33:52;98920.47;;;11.11;74.45
77011;BME280;65945;53.148;17.956;2023-03-14T01:36:19;98909.77;;;11.11;74.58
77011;BME280;65945;53.148;17.956;2023-03-14T01:38:46;98907.99;;;11.12;74.34
77011;BME280;65945;53.148;17.956;2023-03-14T01:41:20;98905.64;;;11.11;74.47
77011;BME280;65945;53.148;17.956;2023-03-14T01:43:47;98907.48;;;11.10;74.36
77011;BME280;65945;53.148;17.956;2023-03-14T01:48:55;98897.94;;;11.09;74.47
77011;BME280;65945;53.148;17.956;2023-03-14T01:51:49;98889.67;;;11.08;74.66
77011;BME280;65945;53.148;17.956;2023-03-14T01:57:13;98882.04;;;11.07;74.55
77011;BME280;65945;53.148;17.956;2023-03-14T01:59:44;98871.27;;;11.08;74.74
77011;BME280;65945;53.148;17.956;2023-03-14T02:02:13;98873.33;;;11.09;74.79
77011;BME280;65945;53.148;17.956;2023-03-14T02:04:41;98861.84;;;11.09;74.92
77011;BME280;65945;53.148;17.956;2023-03-14T02:07:22;98854.81;;;11.08;74.82
77011;BME280;65945;53.148;17.956;2023-03-14T02:10:30;98858.90;;;11.06;75.00
77011;BME280;65945;53.148;17.956;2023-03-14T02:13:03;98858.98;;;11.03;75.04
77011;BME280;65945;53.148;17.956;2023-03-14T02:15:56;98860.77;;;11.01;75.02
77011;BME280;65945;53.148;17.956;2023-03-14T02:18:41;98855.60;;;10.99;75.12
77011;BME280;65945;53.148;17.956;2023-03-14T02:22:13;98858.60;;;10.95;75.21
77011;BME280;65945;53.148;17.956;2023-03-14T02:24:24;98864.83;;;10.93;75.40
77011;BME280;65945;53.148;17.956;2023-03-14T02:27:04;98867.44;;;10.89;75.41
77011;BME280;65945;53.148;17.956;2023-03-14T02:29:33;98861.65;;;10.88;75.59
77011;BME280;65945;53.148;17.956;2023-03-14T02:32:03;98866.93;;;10.87;75.67
77011;BME280;65945;53.148;17.956;2023-03-14T02:34:31;98864.17;;;10.87;75.71
77011;BME280;65945;53.148;17.956;2023-03-14T02:36:58;98856.38;;;10.88;75.62
77011;BME280;65945;53.148;17.956;2023-03-14T02:39:35;98866.89;;;10.91;75.93
77011;BME280;65945;53.148;17.956;2023-03-14T02:42:02;98870.91;;;10.95;75.83
77011;BME280;65945;53.148;17.956;2023-03-14T02:44:29;98856.27;;;10.99;75.90
77011;BME280;65945;53.148;17.956;2023-03-14T02:46:56;98861.29;;;11.04;75.79
77011;BME280;65945;53.148;17.956;2023-03-14T02:49:23;98847.70;;;11.09;75.81
77011;BME280;65945;53.148;17.956;2023-03-14T02:51:51;98853.84;;;11.16;75.88
77011;BME280;65945;53.148;17.956;2023-03-14T02:54:19;98860.90;;;11.20;75.69
77011;BME280;65945;53.148;17.956;2023-03-14T02:56:47;98866.91;;;11.24;75.78
77011;BME280;65945;53.148;17.956;2023-03-14T02:59:14;98867.80;;;11.26;75.72
77011;BME280;65945;53.148;17.956;2023-03-14T03:01:45;98878.92;;;11.29;75.71
77011;BME280;65945;53.148;17.956;2023-03-14T03:04:12;98884.94;;;11.32;75.73
77011;BME280;65945;53.148;17.956;2023-03-14T03:06:38;98887.98;;;11.34;75.89
77011;BME280;65945;53.148;17.956;2023-03-14T03:09:05;98893.77;;;11.36;75.68
77011;BME280;65945;53.148;17.956;2023-03-14T03:11:32;98881.16;;;11.37;75.65
77011;BME280;65945;53.148;17.956;2023-03-14T03:13:58;98883.58;;;11.38;75.82
77011;BME280;65945;53.148;17.956;2023-03-14T03:16:28;98888.48;;;11.40;75.81
77011;BME280;65945;53.148;17.956;2023-03-14T03:18:54;98879.27;;;11.42;75.92
77011;BME280;65945;53.148;17.956;2023-03-14T03:21:21;98877.64;;;11.44;75.80
77011;BME280;65945;53.148;17.956;2023-03-14T03:23:49;98872.59;;;11.45;75.70
77011;BME280;65945;53.148;17.956;2023-03-14T03:26:16;98870.35;;;11.47;75.90
77011;BME280;65945;53.148;17.956;2023-03-14T03:28:43;98860.36;;;11.50;75.90
77011;BME280;65945;53.148;17.956;2023-03-14T03:31:11;98862.72;;;11.52;75.75
77011;BME280;65945;53.148;17.956;2023-03-14T03:33:38;98858.64;;;11.53;75.89
77011;BME280;65945;53.148;17.956;2023-03-14T03:36:07;98862.98;;;11.55;75.79
77011;BME280;65945;53.148;17.956;2023-03-14T03:38:36;98870.48;;;11.57;75.97
77011;BME280;65945;53.148;17.956;2023-03-14T03:41:05;98867.48;;;11.58;76.14
77011;BME280;65945;53.148;17.956;2023-03-14T03:43:32;98866.94;;;11.58;76.07
77011;BME280;65945;53.148;17.956;2023-03-14T03:46:04;98867.39;;;11.58;76.26
77011;BME280;65945;53.148;17.956;2023-03-14T03:48:31;98866.79;;;11.58;76.61
77011;BME280;65945;53.148;17.956;2023-03-14T03:50:58;98868.64;;;11.56;76.69
77011;BME280;65945;53.148;17.956;2023-03-14T03:53:26;98856.27;;;11.53;76.98
77011;BME280;65945;53.148;17.956;2023-03-14T03:55:53;98843.67;;;11.50;77.13
77011;BME280;65945;53.148;17.956;2023-03-14T03:58:20;98832.54;;;11.48;77.09
77011;BME280;65945;53.148;17.956;2023-03-14T04:00:46;98818.20;;;11.44;77.29
77011;BME280;65945;53.148;17.956;2023-03-14T04:03:13;98807.08;;;11.41;77.38
77011;BME280;65945;53.148;17.956;2023-03-14T04:05:40;98794.42;;;11.37;77.41
77011;BME280;65945;53.148;17.956;2023-03-14T04:08:10;98788.17;;;11.35;77.46
77011;BME280;65945;53.148;17.956;2023-03-14T04:10:37;98784.60;;;11.33;77.62
77011;BME280;65945;53.148;17.956;2023-03-14T04:13:18;98773.34;;;11.28;77.55
77011;BME280;65945;53.148;17.956;2023-03-14T04:15:50;98771.25;;;11.24;77.52
77011;BME280;65945;53.148;17.956;2023-03-14T04:18:24;98781.01;;;11.19;77.79
77011;BME280;65945;53.148;17.956;2023-03-14T04:20:55;98788.70;;;11.14;77.84
77011;BME280;65945;53.148;17.956;2023-03-14T04:23:25;98790.59;;;11.10;77.94
77011;BME280;65945;53.148;17.956;2023-03-14T04:25:53;98785.73;;;11.06;78.05
77011;BME280;65945;53.148;17.956;2023-03-14T04:28:21;98783.23;;;11.03;78.16
77011;BME280;65945;53.148;17.956;2023-03-14T04:30:48;98779.21;;;11.00;78.38
77011;BME280;65945;53.148;17.956;2023-03-14T04:33:20;98770.08;;;10.97;78.52
77011;BME280;65945;53.148;17.956;2023-03-14T04:35:54;98763.92;;;10.94;78.56
77011;BME280;65945;53.148;17.956;2023-03-14T04:38:21;98759.52;;;10.92;78.65
77011;BME280;65945;53.148;17.956;2023-03-14T04:40:48;98755.23;;;10.90;78.75
77011;BME280;65945;53.148;17.956;2023-03-14T04:43:16;98754.42;;;10.87;78.82
77011;BME280;65945;53.148;17.956;2023-03-14T04:45:57;98745.04;;;10.86;79.04
77011;BME280;65945;53.148;17.956;2023-03-14T04:48:25;98745.96;;;10.86;78.93
77011;BME280;65945;53.148;17.956;2023-03-14T04:50:52;98745.96;;;10.86;79.05
77011;BME280;65945;53.148;17.956;2023-03-14T04:53:19;98751.83;;;10.87;78.96
77011;BME280;65945;53.148;17.956;2023-03-14T04:55:54;98754.27;;;10.87;79.04
77011;BME280;65945;53.148;17.956;2023-03-14T04:58:22;98754.50;;;10.87;79.03
77011;BME280;65945;53.148;17.956;2023-03-14T05:00:50;98756.65;;;10.86;78.98
77011;BME280;65945;53.148;17.956;2023-03-14T05:03:36;98750.09;;;10.86;78.80
77011;BME280;65945;53.148;17.956;2023-03-14T05:06:29;98753.23;;;10.86;78.90
77011;BME280;65945;53.148;17.956;2023-03-14T05:09:10;98743.77;;;10.84;78.76
77011;BME280;65945;53.148;17.956;2023-03-14T05:11:49;98748.45;;;10.81;78.91
77011;BME280;65945;53.148;17.956;2023-03-14T05:14:33;98734.52;;;10.78;78.81
77011;BME280;65945;53.148;17.956;2023-03-14T05:17:20;98733.41;;;10.73;78.84
77011;BME280;65945;53.148;17.956;2023-03-14T05:20:04;98730.48;;;10.67;78.99
77011;BME280;65945;53.148;17.956;2023-03-14T05:23:04;98748.34;;;10.62;78.98
77011;BME280;65945;53.148;17.956;2023-03-14T05:25:59;98756.63;;;10.57;78.76
77011;BME280;65945;53.148;17.956;2023-03-14T05:28:26;98766.13;;;10.53;78.77
77011;BME280;65945;53.148;17.956;2023-03-14T05:31:14;98769.81;;;10.51;78.86
77011;BME280;65945;53.148;17.956;2023-03-14T05:33:49;98759.83;;;10.49;79.08
77011;BME280;65945;53.148;17.956;2023-03-14T05:36:40;98752.49;;;10.49;78.93
77011;BME280;65945;53.148;17.956;2023-03-14T05:39:18;98754.65;;;10.48;78.89
77011;BME280;65945;53.148;17.956;2023-03-14T05:42:03;98746.09;;;10.47;78.80
77011;BME280;65945;53.148;17.956;2023-03-14T05:44:45;98745.88;;;10.46;78.67
77011;BME280;65945;53.148;17.956;2023-03-14T05:47:24;98748.78;;;10.45;78.56
77011;BME280;65945;53.148;17.956;2023-03-14T05:50:10;98743.30;;;10.44;78.46
77011;BME280;65945;53.148;17.956;2023-03-14T05:52:57;98749.73;;;10.42;78.30
77011;BME280;65945;53.148;17.956;2023-03-14T05:55:53;98766.09;;;10.39;78.24
77011;BME280;65945;53.148;17.956;2023-03-14T05:58:34;98763.68;;;10.37;78.06
77011;BME280;65945;53.148;17.956;2023-03-14T06:01:19;98754.98;;;10.34;77.87
77011;BME280;65945;53.148;17.956;2023-03-14T06:03:58;98751.48;;;10.34;77.66
77011;BME280;65945;53.148;17.956;2023-03-14T06:06:24;98746.05;;;10.34;77.63
77011;BME280;65945;53.148;17.956;2023-03-14T06:08:51;98743.38;;;10.35;77.35
77011;BME280;65945;53.148;17.956;2023-03-14T06:11:18;98752.60;;;10.37;77.39
77011;BME280;65945;53.148;17.956;2023-03-14T06:13:46;98756.56;;;10.39;77.09
77011;BME280;65945;53.148;17.956;2023-03-14T06:16:13;98770.98;;;10.41;76.89
77011;BME280;65945;53.148;17.956;2023-03-14T06:18:40;98772.41;;;10.42;76.49
77011;BME280;65945;53.148;17.956;2023-03-14T06:21:08;98768.20;;;10.43;76.23
77011;BME280;65945;53.148;17.956;2023-03-14T06:23:35;98772.84;;;10.45;76.23
77011;BME280;65945;53.148;17.956;2023-03-14T06:26:02;98778.10;;;10.48;76.21
77011;BME280;65945;53.148;17.956;2023-03-14T06:28:29;98780.13;;;10.50;76.04
77011;BME280;65945;53.148;17.956;2023-03-14T06:30:59;98779.06;;;10.51;75.46
77011;BME280;65945;53.148;17.956;2023-03-14T06:33:28;98777.84;;;10.51;75.55
77011;BME280;65945;53.148;17.956;2023-03-14T06:35:55;98783.02;;;10.52;75.05
77011;BME280;65945;53.148;17.956;2023-03-14T06:38:22;98778.89;;;10.54;75.56
77011;BME280;65945;53.148;17.956;2023-03-14T06:40:52;98781.16;;;10.56;75.26
77011;BME280;65945;53.148;17.956;2023-03-14T06:43:28;98776.55;;;10.59;75.00
77011;BME280;65945;53.148;17.956;2023-03-14T06:45:55;98767.36;;;10.61;75.07
77011;BME280;65945;53.148;17.956;2023-03-14T06:48:22;98770.55;;;10.64;75.05
77011;BME280;65945;53.148;17.956;2023-03-14T06:50:51;98771.14;;;10.67;75.01
77011;BME280;65945;53.148;17.956;2023-03-14T06:53:18;98767.76;;;10.68;74.80
77011;BME280;65945;53.148;17.956;2023-03-14T06:55:45;98765.00;;;10.69;74.06
77011;BME280;65945;53.148;17.956;2023-03-14T06:58:13;98762.64;;;10.68;73.95
77011;BME280;65945;53.148;17.956;2023-03-14T07:00:42;98753.61;;;10.69;74.20
77011;BME280;65945;53.148;17.956;2023-03-14T07:03:14;98758.71;;;10.72;74.01
77011;BME280;65945;53.148;17.956;2023-03-14T07:05:42;98764.79;;;10.76;74.14
77011;BME280;65945;53.148;17.956;2023-03-14T07:08:09;98758.77;;;10.81;73.72
77011;BME280;65945;53.148;17.956;2023-03-14T07:10:36;98758.80;;;10.87;73.79
77011;BME280;65945;53.148;17.956;2023-03-14T07:13:03;98756.19;;;10.95;73.81
77011;BME280;65945;53.148;17.956;2023-03-14T07:15:32;98755.41;;;11.03;73.59
77011;BME280;65945;53.148;17.956;2023-03-14T07:18:03;98762.36;;;11.12;73.51
77011;BME280;65945;53.148;17.956;2023-03-14T07:20:29;98762.56;;;11.21;73.40
77011;BME280;65945;53.148;17.956;2023-03-14T07:22:59;98757.02;;;11.30;72.96
77011;BME280;65945;53.148;17.956;2023-03-14T07:25:49;98752.44;;;11.42;72.48
77011;BME280;65945;53.148;17.956;2023-03-14T07:28:18;98750.98;;;11.49;72.12
77011;BME280;65945;53.148;17.956;2023-03-14T07:30:46;98757.37;;;11.58;72.20
77011;BME280;65945;53.148;17.956;2023-03-14T07:33:17;98766.54;;;11.67;72.03
77011;BME280;65945;53.148;17.956;2023-03-14T07:35:47;98761.92;;;11.75;72.12
77011;BME280;65945;53.148;17.956;2023-03-14T07:38:15;98766.41;;;11.83;72.08
77011;BME280;65945;53.148;17.956;2023-03-14T07:41:03;98770.39;;;11.89;71.32
77011;BME280;65945;53.148;17.956;2023-03-14T07:43:32;98766.51;;;11.92;71.70
77011;BME280;65945;53.148;17.956;2023-03-14T07:46:00;98763.95;;;11.99;71.73
77011;BME280;65945;53.148;17.956;2023-03-14T07:48:27;98756.67;;;12.05;70.87
77011;BME280;65945;53.148;17.956;2023-03-14T07:50:55;98760.32;;;12.07;70.97
77011;BME280;65945;53.148;17.956;2023-03-14T07:53:22;98758.83;;;12.10;70.88
77011;BME280;65945;53.148;17.956;2023-03-14T07:55:50;98755.56;;;12.12;71.12
77011;BME280;65945;53.148;17.956;2023-03-14T07:58:19;98752.05;;;12.18;70.85
77011;BME280;65945;53.148;17.956;2023-03-14T08:00:46;98752.66;;;12.23;70.97
77011;BME280;65945;53.148;17.956;2023-03-14T08:03:12;98751.11;;;12.29;70.78
77011;BME280;65945;53.148;17.956;2023-03-14T08:05:39;98752.64;;;12.33;71.00
77011;BME280;65945;53.148;17.956;2023-03-14T08:08:06;98744.95;;;12.35;70.43
77011;BME280;65945;53.148;17.956;2023-03-14T08:10:33;98739.79;;;12.37;70.62
77011;BME280;65945;53.148;17.956;2023-03-14T08:13:00;98729.87;;;12.39;70.30
77011;BME280;65945;53.148;17.956;2023-03-14T08:15:29;98730.09;;;12.40;70.62
77011;BME280;65945;53.148;17.956;2023-03-14T08:17:56;98725.39;;;12.42;70.71
77011;BME280;65945;53.148;17.956;2023-03-14T08:20:26;98730.73;;;12.43;70.62
77011;BME280;65945;53.148;17.956;2023-03-14T08:22:56;98727.96;;;12.43;70.09
77011;BME280;65945;53.148;17.956;2023-03-14T08:25:23;98730.75;;;12.42;70.46
77011;BME280;65945;53.148;17.956;2023-03-14T08:27:50;98731.55;;;12.45;70.63
77011;BME280;65945;53.148;17.956;2023-03-14T08:30:18;98732.62;;;12.49;70.32
77011;BME280;65945;53.148;17.956;2023-03-14T08:32:45;98725.21;;;12.51;70.48
77011;BME280;65945;53.148;17.956;2023-03-14T08:35:13;98729.27;;;12.56;70.44
77011;BME280;65945;53.148;17.956;2023-03-14T08:37:40;98736.94;;;12.61;70.47
77011;BME280;65945;53.148;17.956;2023-03-14T08:40:08;98748.45;;;12.64;70.14
77011;BME280;65945;53.148;17.956;2023-03-14T08:42:37;98756.55;;;12.66;70.15
77011;BME280;65945;53.148;17.956;2023-03-14T08:45:05;98757.02;;;12.66;70.09
77011;BME280;65945;53.148;17.956;2023-03-14T08:47:32;98755.98;;;12.63;70.08
77011;BME280;65945;53.148;17.956;2023-03-14T08:49:59;98754.41;;;12.56;69.65
77011;BME280;65945;53.148;17.956;2023-03-14T08:52:25;98759.52;;;12.48;69.86
77011;BME280;65945;53.148;17.956;2023-03-14T08:54:52;98756.33;;;12.38;69.61
77011;BME280;65945;53.148;17.956;2023-03-14T08:57:19;98771.54;;;12.30;70.44
77011;BME280;65945;53.148;17.956;2023-03-14T08:59:48;98771.08;;;12.26;70.36
77011;BME280;65945;53.148;17.956;2023-03-14T09:02:14;98769.20;;;12.22;70.34
77011;BME280;65945;53.148;17.956;2023-03-14T09:04:41;98772.59;;;12.21;70.39
77011;BME280;65945;53.148;17.956;2023-03-14T09:07:08;98775.59;;;12.21;70.49
77011;BME280;65945;53.148;17.956;2023-03-14T09:09:34;98778.64;;;12.21;70.40
77011;BME280;65945;53.148;17.956;2023-03-14T09:12:01;98767.13;;;12.23;70.40
77011;BME280;65945;53.148;17.956;2023-03-14T09:14:28;98757.92;;;12.29;70.47
77011;BME280;65945;53.148;17.956;2023-03-14T09:16:55;98766.59;;;12.37;70.56
77011;BME280;65945;53.148;17.956;2023-03-14T09:19:22;98761.96;;;12.49;70.30
77011;BME280;65945;53.148;17.956;2023-03-14T09:21:48;98752.10;;;12.61;70.05
77011;BME280;65945;53.148;17.956;2023-03-14T09:24:16;98747.42;;;12.70;69.60
77011;BME280;65945;53.148;17.956;2023-03-14T09:26:43;98748.91;;;12.81;69.99
77011;BME280;65945;53.148;17.956;2023-03-14T09:29:09;98746.71;;;12.97;69.51
77011;BME280;65945;53.148;17.956;2023-03-14T09:31:36;98747.33;;;13.15;69.31
77011;BME280;65945;53.148;17.956;2023-03-14T09:34:02;98745.50;;;13.33;68.76
77011;BME280;65945;53.148;17.956;2023-03-14T09:36:30;98745.95;;;13.46;68.28
77011;BME280;65945;53.148;17.956;2023-03-14T09:38:56;98750.39;;;13.57;68.23
77011;BME280;65945;53.148;17.956;2023-03-14T09:41:29;98758.42;;;13.65;67.59
77011;BME280;65945;53.148;17.956;2023-03-14T09:47:00;98759.70;;;13.67;67.18
77011;BME280;65945;53.148;17.956;2023-03-14T09:49:34;98755.55;;;13.70;67.24
77011;BME280;65945;53.148;17.956;2023-03-14T09:52:17;98758.14;;;13.75;67.43
77011;BME280;65945;53.148;17.956;2023-03-14T09:55:07;98752.78;;;13.74;66.74
77011;BME280;65945;53.148;17.956;2023-03-14T09:57:37;98754.96;;;13.73;66.96
77011;BME280;65945;53.148;17.956;2023-03-14T10:02:45;98756.44;;;13.61;66.16
77011;BME280;65945;53.148;17.956;2023-03-14T10:05:18;98757.55;;;13.53;66.47
77011;BME280;65945;53.148;17.956;2023-03-14T10:07:45;98758.11;;;13.48;66.61
77011;BME280;65945;53.148;17.956;2023-03-14T10:10:17;98756.02;;;13.41;66.79
77011;BME280;65945;53.148;17.956;2023-03-14T10:12:47;98754.06;;;13.35;66.14
77011;BME280;65945;53.148;17.956;2023-03-14T10:15:15;98754.79;;;13.30;66.60
77011;BME280;65945;53.148;17.956;2023-03-14T10:17:50;98751.80;;;13.26;66.14
77011;BME280;65945;53.148;17.956;2023-03-14T10:20:30;98762.79;;;13.24;66.52
77011;BME280;65945;53.148;17.956;2023-03-14T10:25:30;98759.94;;;13.33;66.65
77011;BME280;65945;53.148;17.956;2023-03-14T10:27:58;98756.93;;;13.38;66.06
77011;BME280;65945;53.148;17.956;2023-03-14T10:33:30;98756.56;;;13.49;65.84
77011;BME280;65945;53.148;17.956;2023-03-14T10:38:44;98741.20;;;13.56;64.84
77011;BME280;65945;53.148;17.956;2023-03-14T10:41:37;98745.08;;;13.58;64.57
77011;BME280;65945;53.148;17.956;2023-03-14T10:44:05;98738.16;;;13.58;64.67
77011;BME280;65945;53.148;17.956;2023-03-14T10:46:34;98740.88;;;13.61;65.46
77011;BME280;65945;53.148;17.956;2023-03-14T10:49:34;98739.15;;;13.65;65.12
77011;BME280;65945;53.148;17.956;2023-03-14T10:52:20;98737.78;;;13.68;64.50
77011;BME280;65945;53.148;17.956;2023-03-14T10:54:55;98742.54;;;13.69;65.15
77011;BME280;65945;53.148;17.956;2023-03-14T10:57:26;98738.89;;;13.71;64.60
77011;BME280;65945;53.148;17.956;2023-03-14T10:59:54;98743.34;;;13.71;64.73
77011;BME280;65945;53.148;17.956;2023-03-14T11:02:45;98751.52;;;13.72;64.82
77011;BME280;65945;53.148;17.956;2023-03-14T11:08:01;98749.60;;;13.69;64.90
77011;BME280;65945;53.148;17.956;2023-03-14T11:13:12;98757.79;;;13.74;64.98
77011;BME280;65945;53.148;17.956;2023-03-14T11:26:32;98750.17;;;13.85;64.19
77011;BME280;65945;53.148;17.956;2023-03-14T11:29:21;98758.30;;;13.92;64.39
77011;BME280;65945;53.148;17.956;2023-03-14T11:31:55;98759.20;;;14.00;64.61
77011;BME280;65945;53.148;17.956;2023-03-14T11:34:33;98766.11;;;14.07;64.33
77011;BME280;65945;53.148;17.956;2023-03-14T11:37:25;98766.88;;;14.14;64.26
77011;BME280;65945;53.148;17.956;2023-03-14T11:40:21;98763.16;;;14.21;63.97
77011;BME280;65945;53.148;17.956;2023-03-14T11:46:15;98754.02;;;14.24;63.39
77011;BME280;65945;53.148;17.956;2023-03-14T11:49:01;98761.78;;;14.33;63.51
77011;BME280;65945;53.148;17.956;2023-03-14T11:51:36;98758.71;;;14.36;62.48
77011;BME280;65945;53.148;17.956;2023-03-14T11:54:30;98759.99;;;14.36;62.82
77011;BME280;65945;53.148;17.956;2023-03-14T11:57:01;98761.48;;;14.39;63.08
77011;BME280;65945;53.148;17.956;2023-03-14T12:10:54;98748.48;;;14.16;62.76
77011;BME280;65945;53.148;17.956;2023-03-14T12:13:21;98749.83;;;14.04;62.94
77011;BME280;65945;53.148;17.956;2023-03-14T12:15:57;98740.45;;;13.97;63.22
77011;BME280;65945;53.148;17.956;2023-03-14T12:18:33;98730.64;;;13.90;63.09
77011;BME280;65945;53.148;17.956;2023-03-14T12:21:03;98732.84;;;13.84;63.16
77011;BME280;65945;53.148;17.956;2023-03-14T12:26:14;98730.16;;;13.77;63.96
77011;BME280;65945;53.148;17.956;2023-03-14T12:28:44;98732.59;;;13.84;64.07
77011;BME280;65945;53.148;17.956;2023-03-14T12:42:13;98725.77;;;14.50;63.03
77011;BME280;65945;53.148;17.956;2023-03-14T12:44:49;98717.53;;;14.54;62.78
77011;BME280;65945;53.148;17.956;2023-03-14T12:49:51;98717.48;;;14.53;63.04
77011;BME280;65945;53.148;17.956;2023-03-14T12:52:22;98714.73;;;14.58;62.95
77011;BME280;65945;53.148;17.956;2023-03-14T12:54:57;98711.52;;;14.63;62.62
77011;BME280;65945;53.148;17.956;2023-03-14T13:00:00;98714.43;;;14.64;61.84
77011;BME280;65945;53.148;17.956;2023-03-14T13:02:38;98717.00;;;14.63;62.65
77011;BME280;65945;53.148;17.956;2023-03-14T13:05:13;98713.27;;;14.61;62.28
77011;BME280;65945;53.148;17.956;2023-03-14T13:12:38;98704.39;;;14.45;62.45
77011;BME280;65945;53.148;17.956;2023-03-14T13:15:17;98701.10;;;14.41;62.61
77011;BME280;65945;53.148;17.956;2023-03-14T13:17:46;98706.56;;;14.38;62.71
77011;BME280;65945;53.148;17.956;2023-03-14T13:20:20;98708.07;;;14.39;62.46
77011;BME280;65945;53.148;17.956;2023-03-14T13:22:49;98712.13;;;14.39;62.42
77011;BME280;65945;53.148;17.956;2023-03-14T13:25:16;98713.86;;;14.37;62.35
77011;BME280;65945;53.148;17.956;2023-03-14T13:27:44;98714.06;;;14.33;62.75
77011;BME280;65945;53.148;17.956;2023-03-14T13:32:43;98716.94;;;14.28;63.10
77011;BME280;65945;53.148;17.956;2023-03-14T13:35:20;98716.98;;;14.26;63.07
77011;BME280;65945;53.148;17.956;2023-03-14T13:37:53;98710.33;;;14.21;62.89
77011;BME280;65945;53.148;17.956;2023-03-14T13:40:29;98712.99;;;14.15;63.34
77011;BME280;65945;53.148;17.956;2023-03-14T13:43:06;98714.98;;;14.12;63.27
77011;BME280;65945;53.148;17.956;2023-03-14T13:46:10;98718.08;;;14.08;63.34
77011;BME280;65945;53.148;17.956;2023-03-14T13:48:44;98721.89;;;14.03;63.45
77011;BME280;65945;53.148;17.956;2023-03-14T13:51:14;98721.27;;;13.99;63.67
77011;BME280;65945;53.148;17.956;2023-03-14T13:53:50;98715.85;;;13.98;63.14
77011;BME280;65945;53.148;17.956;2023-03-14T13:56:19;98712.91;;;13.99;63.36
77011;BME280;65945;53.148;17.956;2023-03-14T13:58:47;98712.08;;;14.02;63.25
77011;BME280;65945;53.148;17.956;2023-03-14T14:01:18;98709.25;;;14.04;63.24
77011;BME280;65945;53.148;17.956;2023-03-14T14:03:49;98707.27;;;14.07;63.20
77011;BME280;65945;53.148;17.956;2023-03-14T14:06:31;98707.13;;;14.13;63.02
77011;BME280;65945;53.148;17.956;2023-03-14T14:09:01;98708.44;;;14.22;62.73
77011;BME280;65945;53.148;17.956;2023-03-14T14:14:10;98706.04;;;14.40;62.54
77011;BME280;65945;53.148;17.956;2023-03-14T14:16:38;98706.40;;;14.50;62.34
77011;BME280;65945;53.148;17.956;2023-03-14T14:19:06;98707.46;;;14.57;62.37
77011;BME280;65945;53.148;17.956;2023-03-14T14:21:32;98702.40;;;14.62;62.20
77011;BME280;65945;53.148;17.956;2023-03-14T14:23:59;98694.11;;;14.68;61.77
77011;BME280;65945;53.148;17.956;2023-03-14T14:26:27;98688.63;;;14.68;61.57
77011;BME280;65945;53.148;17.956;2023-03-14T14:29:05;98692.55;;;14.71;61.97
77011;BME280;65945;53.148;17.956;2023-03-14T14:31:32;98691.71;;;14.80;61.97